Time;durP1;ratioP1;P1;durP2;ratioP2;P2;SDS_P1;SDS_P2;PMS_P1;PMS_P2;Temp;Humidity;BMP_temperature;BMP_pressure;BME280_temperature;BME280_humidity;BME280_pressure;Samples;Min_cycle;Max_cycle;Signal;HPM_P1;HPM_P2
2023/11/29 00:05:40;;;;;;;40.30;24.80;;;;;;;-5.00;100.00;98262.45;435802;1251;142295;-70
2023/11/29 00:15:51;;;;;;;27.50;19.10;;;;;;;-4.90;100.00;98275.71;436013;1253;140526;-69
2023/11/29 00:25:57;;;;;;;27.40;18.20;;;;;;;-4.83;100.00;98287.34;436014;1253;139807;-69
2023/11/29 00:36:04;;;;;;;30.70;20.40;;;;;;;-4.75;100.00;98284.45;435609;1254;141054;-71
2023/11/29 00:46:10;;;;;;;25.10;15.90;;;;;;;-4.69;100.00;98295.39;437032;1253;141000;-69
2023/11/29 00:56:16;;;;;;;19.90;13.60;;;;;;;-4.68;100.00;98306.13;435556;1253;139819;-69
2023/11/29 01:06:22;;;;;;;22.70;16.40;;;;;;;-4.66;100.00;98312.94;435362;1253;141047;-69
2023/11/29 01:16:28;;;;;;;26.00;16.10;;;;;;;-4.65;100.00;98316.14;435592;1253;140734;-69
2023/11/29 01:26:35;;;;;;;23.30;15.50;;;;;;;-4.62;100.00;98313.68;435729;1253;140758;-69
2023/11/29 01:36:44;;;;;;;23.60;16.60;;;;;;;-4.62;100.00;98314.03;435750;1253;143103;-69
2023/11/29 01:46:51;;;;;;;21.40;14.60;;;;;;;-4.58;100.00;98315.32;435920;1251;141384;-70
2023/11/29 01:56:57;;;;;;;19.80;14.60;;;;;;;-4.58;100.00;98317.52;436163;1254;140628;-69
2023/11/29 02:07:04;;;;;;;20.20;14.30;;;;;;;-4.63;100.00;98317.48;435890;1254;140029;-69
2023/11/29 02:17:11;;;;;;;24.00;16.40;;;;;;;-4.68;100.00;98327.13;436186;1251;141724;-70
2023/11/29 02:27:18;;;;;;;23.80;16.20;;;;;;;-4.68;100.00;98332.93;436642;1253;140257;-69
2023/11/29 02:37:24;;;;;;;23.30;16.10;;;;;;;-4.70;100.00;98341.02;435792;1253;140626;-69
2023/11/29 02:47:30;;;;;;;25.00;16.40;;;;;;;-4.70;100.00;98347.83;435887;1256;141424;-70
2023/11/29 02:57:36;;;;;;;22.40;15.50;;;;;;;-4.66;100.00;98351.52;435897;1253;141630;-70
2023/11/29 03:07:43;;;;;;;22.60;14.40;;;;;;;-4.71;100.00;98354.36;436377;1252;139821;-69
2023/11/29 03:17:49;;;;;;;18.40;12.90;;;;;;;-4.74;100.00;98359.55;435422;1253;141213;-69
2023/11/29 03:27:57;;;;;;;21.90;14.60;;;;;;;-4.85;100.00;98352.77;435748;1253;140218;-69
2023/11/29 03:38:03;;;;;;;19.90;14.00;;;;;;;-4.90;100.00;98357.67;436189;1255;140019;-68
2023/11/29 03:48:09;;;;;;;18.00;13.40;;;;;;;-4.92;100.00;98353.43;436145;1253;139928;-69
2023/11/29 03:58:16;;;;;;;18.50;14.40;;;;;;;-4.99;100.00;98357.32;435359;1253;139956;-69
2023/11/29 04:08:22;;;;;;;29.00;19.20;;;;;;;-5.05;100.00;98357.97;435606;1254;140034;-70
2023/11/29 04:18:28;;;;;;;26.30;17.90;;;;;;;-5.05;100.00;98367.88;436287;1253;141005;-70
2023/11/29 04:28:35;;;;;;;23.70;17.00;;;;;;;-5.07;100.00;98379.34;435727;1253;140510;-69
2023/11/29 04:38:41;;;;;;;23.50;16.20;;;;;;;-5.15;100.00;98382.40;435692;1254;140884;-70
2023/11/29 04:48:48;;;;;;;31.70;19.80;;;;;;;-5.28;100.00;98386.55;435689;1253;141671;-70
2023/11/29 04:58:54;;;;;;;24.40;16.70;;;;;;;-5.40;100.00;98390.52;435514;1251;139790;-69
2023/11/29 05:09:00;;;;;;;26.10;18.50;;;;;;;-5.44;100.00;98398.46;435760;1254;139797;-70
2023/11/29 05:19:06;;;;;;;28.10;18.70;;;;;;;-5.38;100.00;98394.77;435668;1253;140551;-69
2023/11/29 05:29:13;;;;;;;29.70;19.30;;;;;;;-5.30;100.00;98396.50;435446;1254;140201;-69
2023/11/29 05:39:20;;;;;;;26.80;18.50;;;;;;;-5.23;100.00;98402.86;437235;1253;140418;-70
2023/11/29 05:49:26;;;;;;;26.60;18.60;;;;;;;-5.26;100.00;98409.05;435654;1251;140758;-69
2023/11/29 05:59:32;;;;;;;25.90;17.00;;;;;;;-5.38;100.00;98418.30;436385;1251;140969;-69
2023/11/29 06:09:39;;;;;;;30.80;18.40;;;;;;;-5.35;100.00;98424.06;435451;1253;140783;-67
2023/11/29 06:19:47;;;;;;;31.00;20.20;;;;;;;-5.33;100.00;98435.79;437069;1251;140424;-69
2023/11/29 06:29:53;;;;;;;33.90;21.20;;;;;;;-5.31;100.00;98442.41;436537;1250;141818;-69
2023/11/29 06:40:00;;;;;;;33.10;22.60;;;;;;;-5.45;100.00;98459.36;435330;1253;140524;-69
2023/11/29 06:50:08;;;;;;;34.30;20.70;;;;;;;-5.50;100.00;98471.05;436663;1251;141293;-69
2023/11/29 07:00:17;;;;;;;41.00;23.50;;;;;;;-5.45;100.00;98465.34;436807;1251;141012;-69
2023/11/29 07:10:25;;;;;;;28.50;19.30;;;;;;;-5.35;100.00;98473.20;435828;1251;140798;-70
2023/11/29 07:20:31;;;;;;;28.10;16.80;;;;;;;-5.34;100.00;98488.52;436085;1253;139804;-70
2023/11/29 07:30:51;;;;;;;18.10;11.00;;;;;;;-5.28;100.00;98497.63;435210;1251;139876;-66
2023/11/29 07:40:57;;;;;;;22.50;13.90;;;;;;;-5.22;100.00;98504.70;436596;1253;140108;-66
2023/11/29 07:51:04;;;;;;;25.90;15.00;;;;;;;-5.17;100.00;98511.11;436476;1254;140861;-70
2023/11/29 08:01:10;;;;;;;23.20;16.20;;;;;;;-5.09;100.00;98517.61;439606;1251;139951;-69
2023/11/29 08:11:17;;;;;;;26.20;15.40;;;;;;;-5.03;100.00;98524.69;436390;1249;140079;-70
2023/11/29 08:21:23;;;;;;;31.70;19.80;;;;;;;-4.98;100.00;98525.96;439390;1253;141315;-72
2023/11/29 08:31:29;;;;;;;19.60;13.50;;;;;;;-4.83;100.00;98525.00;437465;1251;139790;-75
2023/11/29 08:41:36;;;;;;;19.90;12.50;;;;;;;-4.69;100.00;98527.33;435789;1250;141924;-68
2023/11/29 08:51:42;;;;;;;20.80;13.50;;;;;;;-4.59;100.00;98532.59;436048;1250;140278;-72
2023/11/29 09:01:49;;;;;;;21.80;15.20;;;;;;;-4.44;100.00;98533.15;439666;1250;140220;-71
2023/11/29 09:11:56;;;;;;;21.90;15.30;;;;;;;-4.38;100.00;98537.98;436802;1250;140712;-70
2023/11/29 09:22:03;;;;;;;18.90;12.20;;;;;;;-4.30;100.00;98530.46;435451;1250;140071;-68
2023/11/29 09:32:10;;;;;;;17.50;13.00;;;;;;;-4.12;100.00;98531.81;435958;1250;140707;-71
2023/11/29 09:42:18;;;;;;;15.10;10.70;;;;;;;-3.89;100.00;98528.24;436106;1251;140912;-67
2023/11/29 09:52:26;;;;;;;13.50;10.30;;;;;;;-3.71;100.00;98522.04;437930;1253;141544;-72
2023/11/29 10:02:35;;;;;;;19.20;13.20;;;;;;;-3.52;100.00;98516.48;440680;1250;140284;-81
2023/11/29 10:12:43;;;;;;;16.90;11.10;;;;;;;-3.44;100.00;98511.46;437816;1251;140681;-70
2023/11/29 10:22:52;;;;;;;19.90;13.60;;;;;;;-3.49;100.00;98516.20;438910;1250;143779;-69
2023/11/29 10:32:58;;;;;;;16.90;12.30;;;;;;;-3.56;100.00;98516.38;438790;1250;139608;-66
2023/11/29 10:43:09;;;;;;;24.60;15.20;;;;;;;-3.53;100.00;98518.70;437329;1250;139905;-74
2023/11/29 10:53:16;;;;;;;18.80;13.70;;;;;;;-3.57;100.00;98524.60;436457;1251;140689;-62
2023/11/29 11:03:43;;;;;;;22.20;12.90;;;;;;;-3.59;100.00;98513.70;436074;1250;140225;-68
2023/11/29 11:13:53;;;;;;;23.60;15.00;;;;;;;-3.53;100.00;98515.27;436796;1250;139804;-68
2023/11/29 11:24:01;;;;;;;26.40;18.50;;;;;;;-3.77;100.00;98513.79;435239;1254;140157;-69
2023/11/29 11:34:14;;;;;;;28.00;16.20;;;;;;;-3.93;100.00;98504.22;435342;1251;140992;-73
2023/11/29 11:44:22;;;;;;;21.60;15.00;;;;;;;-3.93;100.00;98505.25;436007;1251;140218;-62
2023/11/29 11:54:29;;;;;;;19.00;13.50;;;;;;;-3.89;100.00;98506.52;436774;1251;187684;-70
2023/11/29 12:04:37;;;;;;;25.50;16.90;;;;;;;-3.66;100.00;98499.48;439099;1254;140614;-72
2023/11/29 12:14:44;;;;;;;25.10;16.60;;;;;;;-3.49;100.00;98488.67;435397;1254;140212;-68
2023/11/29 12:24:51;;;;;;;23.20;15.50;;;;;;;-3.51;100.00;98494.02;435556;1251;139955;-73
2023/11/29 12:34:58;;;;;;;24.00;16.90;;;;;;;-3.66;100.00;98493.17;439474;1253;140316;-72
2023/11/29 12:45:06;;;;;;;24.10;15.80;;;;;;;-3.76;100.00;98481.45;440206;1248;140715;-70
2023/11/29 12:55:13;;;;;;;17.80;10.80;;;;;;;-3.83;100.00;98479.02;435733;1250;141131;-69
2023/11/29 13:05:19;;;;;;;16.40;9.60;;;;;;;-3.91;100.00;98488.44;435621;1253;140895;-71
2023/11/29 13:15:25;;;;;;;12.30;10.50;;;;;;;-4.11;100.00;98494.17;439658;1250;140822;-71
2023/11/29 13:25:32;;;;;;;15.80;12.80;;;;;;;-4.26;100.00;98500.15;436595;1253;140923;-69
2023/11/29 13:35:41;;;;;;;18.00;13.70;;;;;;;-4.23;100.00;98492.40;436278;1249;141301;-69
2023/11/29 13:45:47;;;;;;;20.90;13.10;;;;;;;-4.22;100.00;98492.19;439708;1250;141186;-69
2023/11/29 13:55:54;;;;;;;17.10;11.80;;;;;;;-4.18;100.00;98497.75;437257;1251;140948;-70
2023/11/29 14:06:01;;;;;;;17.40;11.60;;;;;;;-4.19;100.00;98498.47;438539;1253;141339;-63
2023/11/29 14:16:09;;;;;;;20.90;14.40;;;;;;;-4.16;100.00;98496.19;435935;1252;140112;-72
2023/11/29 14:26:16;;;;;;;26.20;15.60;;;;;;;-4.12;100.00;98496.08;438622;1251;142483;-64
2023/11/29 14:36:22;;;;;;;26.40;17.30;;;;;;;-4.13;100.00;98501.58;437186;1251;139662;-72
2023/11/29 14:46:28;;;;;;;31.20;19.00;;;;;;;-4.17;100.00;98509.02;439504;1251;140471;-69
2023/11/29 14:56:35;;;;;;;20.70;14.90;;;;;;;-4.22;100.00;98510.29;436778;1253;141780;-67
2023/11/29 15:06:44;;;;;;;19.00;11.00;;;;;;;-4.21;100.00;98512.17;437431;1251;140408;-68
2023/11/29 15:16:51;;;;;;;17.40;11.90;;;;;;;-4.22;100.00;98516.30;437401;1248;141122;-70
2023/11/29 15:26:57;;;;;;;16.50;11.90;;;;;;;-4.31;100.00;98519.56;438747;1250;140189;-73
2023/11/29 15:37:06;;;;;;;26.30;17.40;;;;;;;-4.52;100.00;98522.54;437941;1252;140394;-66
2023/11/29 15:47:13;;;;;;;24.10;14.60;;;;;;;-4.77;100.00;98518.08;437269;1248;140526;-69
2023/11/29 15:57:21;;;;;;;20.80;15.30;;;;;;;-5.18;100.00;98517.95;437262;1253;141277;-70
2023/11/29 16:07:28;;;;;;;25.70;16.90;;;;;;;-5.56;100.00;98512.25;440201;1253;140045;-70
2023/11/29 16:17:34;;;;;;;29.30;21.30;;;;;;;-5.88;100.00;98509.32;437886;1248;140148;-68
2023/11/29 16:27:41;;;;;;;43.20;31.60;;;;;;;-6.10;100.00;98506.77;436693;1248;140745;-70
2023/11/29 16:37:48;;;;;;;31.70;23.30;;;;;;;-6.31;100.00;98501.77;435989;1251;140588;-69
2023/11/29 16:47:54;;;;;;;34.90;24.40;;;;;;;-6.46;100.00;98488.84;435204;1253;140356;-69
2023/11/29 16:58:01;;;;;;;33.60;22.90;;;;;;;-6.64;100.00;98494.67;435778;1253;141098;-65
2023/11/29 17:08:07;;;;;;;38.40;24.70;;;;;;;-6.78;100.00;98496.02;436708;1254;140746;-67
2023/11/29 17:18:14;;;;;;;34.40;22.90;;;;;;;-6.87;100.00;98487.27;435670;1251;139859;-68
2023/11/29 17:28:20;;;;;;;42.20;29.60;;;;;;;-6.92;100.00;98490.90;435685;1254;140907;-66
2023/11/29 17:38:26;;;;;;;44.00;29.70;;;;;;;-7.01;100.00;98494.91;436161;1252;140731;-67
2023/11/29 17:48:33;;;;;;;49.40;31.80;;;;;;;-7.09;100.00;98488.54;436237;1253;140124;-67
2023/11/29 17:58:39;;;;;;;47.40;29.90;;;;;;;-7.11;100.00;98482.24;436265;1253;141217;-70
2023/11/29 18:08:47;;;;;;;43.80;33.30;;;;;;;-7.20;100.00;98474.52;436421;1249;140241;-69
2023/11/29 18:18:53;;;;;;;47.70;33.50;;;;;;;-7.26;100.00;98471.35;436424;1253;141913;-70
2023/11/29 18:28:59;;;;;;;53.70;32.50;;;;;;;-7.35;100.00;98461.40;436592;1252;141474;-69
2023/11/29 18:39:07;;;;;;;50.80;35.00;;;;;;;-7.42;100.00;98458.74;436175;1252;139856;-70
2023/11/29 18:49:13;;;;;;;58.70;39.30;;;;;;;-7.52;100.00;98466.30;436530;1253;141014;-69
2023/11/29 18:59:19;;;;;;;53.90;37.00;;;;;;;-7.61;100.00;98465.54;436155;1253;141496;-70
2023/11/29 19:09:25;;;;;;;60.10;41.30;;;;;;;-7.62;100.00;98467.58;436214;1253;140575;-70
2023/11/29 19:19:32;;;;;;;63.40;41.10;;;;;;;-7.56;100.00;98456.16;436050;1253;140030;-69
2023/11/29 19:29:38;;;;;;;71.30;47.60;;;;;;;-7.53;100.00;98449.83;435967;1248;140607;-69
2023/11/29 19:39:44;;;;;;;66.30;43.80;;;;;;;-7.55;100.00;98443.23;444136;1250;140438;-67
2023/11/29 19:49:50;;;;;;;76.70;48.30;;;;;;;-7.58;100.00;98447.33;435882;1254;140895;-70
2023/11/29 19:59:57;;;;;;;73.60;48.90;;;;;;;-7.61;100.00;98443.61;435831;1248;140439;-69
2023/11/29 20:10:03;;;;;;;78.20;53.60;;;;;;;-7.64;100.00;98439.56;436040;1253;139961;-69
2023/11/29 20:20:13;;;;;;;78.20;48.10;;;;;;;-7.66;100.00;98439.92;436967;1252;141134;-68
2023/11/29 20:30:25;;;;;;;69.30;46.30;;;;;;;-7.66;100.00;98437.04;436162;1253;140770;-70
2023/11/29 20:40:32;;;;;;;59.00;41.90;;;;;;;-7.70;100.00;98435.70;436951;1253;140251;-69
2023/11/29 20:50:52;;;;;;;64.80;46.20;;;;;;;-7.73;100.00;98437.44;436726;1248;140455;-70
2023/11/29 21:00:58;;;;;;;57.90;35.90;;;;;;;-7.77;100.00;98437.80;436095;1251;140005;-69
2023/11/29 21:11:06;;;;;;;61.30;41.80;;;;;;;-7.79;100.00;98429.66;435766;1248;140905;-69
2023/11/29 21:21:12;;;;;;;56.20;38.90;;;;;;;-7.77;100.00;98420.46;436213;1253;140014;-67
2023/11/29 21:31:19;;;;;;;53.10;35.40;;;;;;;-7.71;100.00;98412.60;436500;1253;140546;-68
2023/11/29 21:41:28;;;;;;;52.60;34.20;;;;;;;-7.59;100.00;98403.65;436537;1254;139698;-69
2023/11/29 21:51:35;;;;;;;49.50;37.20;;;;;;;-7.50;100.00;98393.20;437113;1253;141044;-70
2023/11/29 22:01:41;;;;;;;51.30;34.30;;;;;;;-7.45;100.00;98399.26;435966;1253;142061;-69
2023/11/29 22:11:48;;;;;;;65.20;41.70;;;;;;;-7.45;100.00;98402.14;435480;1254;140150;-69
2023/11/29 22:21:55;;;;;;;60.00;40.00;;;;;;;-7.40;100.00;98403.14;435630;1253;141240;-69
2023/11/29 22:32:04;;;;;;;54.90;37.30;;;;;;;-7.22;100.00;98401.23;435222;1256;140596;-69
2023/11/29 22:42:11;;;;;;;72.30;45.20;;;;;;;-6.97;100.00;98387.49;439887;1251;140716;-70
2023/11/29 22:52:17;;;;;;;66.90;44.30;;;;;;;-6.74;100.00;98379.71;436004;1254;139817;-68
2023/11/29 23:02:24;;;;;;;49.00;33.60;;;;;;;-6.53;100.00;98372.45;441619;1251;141486;-69
2023/11/29 23:12:30;;;;;;;45.40;31.90;;;;;;;-6.35;100.00;98365.90;436451;1254;140884;-68
2023/11/29 23:22:36;;;;;;;36.00;26.80;;;;;;;-6.26;100.00;98364.58;435965;1251;140801;-69
2023/11/29 23:32:42;;;;;;;35.30;24.80;;;;;;;-6.17;100.00;98354.55;435934;1253;140095;-69
2023/11/29 23:42:49;;;;;;;39.40;25.10;;;;;;;-6.09;100.00;98354.91;435824;1254;140047;-69
2023/11/29 23:52:55;;;;;;;43.10;26.30;;;;;;;-5.98;100.00;98344.50;436029;1251;156780;-69
